Mont Saint Michel — FNMT — position and weather

sailwx.info

Track history (hours):
 
Tides and Currents Weather Stations Pressure Air Temp Water Temp Dewpoint Dewpoint Depression Visibility Wind Speed Wind Dir Waves Ship Positions

Mont Saint Michel

Last reported at 2016-Dec-04 01:33 UTC. Time now 2016-Dec-04 01:57 UTC.
Position N 49°56' W 000°36'.

Length 173 m; beam 29 m.

Type: Ship. MMSI: 227023100.

Date/timePositionNaut miles runAvg speedWind from/ knotsBaromVisibWave heightAir tempDewpointWater temp
2016-Dec-04 01:33N 49°56' W 000°36'1111.5
2016-Dec-04 00:33N 49°45' W 000°30'1211.6
2016-Dec-03 23:33N 49°34' W 000°24'1111.4
2016-Dec-03 22:33N 49°24' W 000°16'6 6.4
2016-Dec-03 21:33N 49°17' W 000°15'0 0.0
2016-Dec-03 20:34N 49°17' W 000°15'1312.7
2016-Dec-03 19:34N 49°30' W 000°20'1818.2
2016-Dec-03 18:34N 49°47' W 000°30'1818.1
2016-Dec-03 17:33N 50°04' W 000°39'2118.0
2016-Dec-03 16:23N 50°23' W 000°51'1518.0
2016-Dec-03 15:34N 50°38' W 000°58'1212.0
2016-Dec-03 14:33N 50°49' W 001°06'0 0.0
2016-Dec-03 13:33N 50°49' W 001°06'4 4.4
2016-Dec-03 12:34N 50°44' W 001°04'1919.2
2016-Dec-03 11:33N 50°27' W 000°51'1818.5
2016-Dec-03 10:33N 50°10' W 000°42'1818.0
2016-Dec-03 09:33N 49°52' W 000°34'1818.2
2016-Dec-03 08:33N 49°35' W 000°24'1818.4
2016-Dec-03 07:33N 49°18' W 000°15'1 0.5
2016-Dec-03 06:33N 49°17' W 000°15'0 0.1
2016-Dec-03 05:33N 49°17' W 000°15'1312.6
2016-Dec-03 04:34N 49°29' W 000°20'1515.3
2016-Dec-03 03:34N 49°43' W 000°29'1211.7
2016-Dec-03 02:33N 49°55' W 000°35'1212.2
2016-Dec-03 01:33N 50°07' W 000°38'1512.7
2016-Dec-03 00:23N 50°21' W 000°45'1112.9
2016-Dec-02 23:34N 50°30' W 000°52'1413.9
2016-Dec-02 22:33N 50°43' W 001°02'6 6.3
2016-Dec-02 21:33N 50°49' W 001°06'0 0.0
2016-Dec-02 20:33N 50°49' W 001°06'0 0.0
2016-Dec-02 19:33N 50°49' W 001°06'4 4.3
2016-Dec-02 18:34N 50°44' W 001°05'1716.8
2016-Dec-02 17:33N 50°29' W 000°56'1716.6
2016-Dec-02 16:33N 50°13' W 000°48'1717.3
2016-Dec-02 15:33N 49°57' W 000°38'1717.2
2016-Dec-02 14:33N 49°41' W 000°28'1717.3
2016-Dec-02 13:33N 49°25' W 000°17'8 7.7
2016-Dec-02 12:33N 49°17' W 000°15'0 0.0
2016-Dec-02 11:33N 49°17' W 000°15'0 0.0
2016-Dec-02 10:33N 49°17' W 000°15'0 0.1
2016-Dec-02 09:33N 49°17' W 000°15'0 0.0
2016-Dec-02 08:33N 49°17' W 000°15'0 0.1
2016-Dec-02 07:33N 49°17' W 000°15'0 0.0
2016-Dec-02 06:33N 49°17' W 000°15'1110.5
2016-Dec-02 05:33N 49°28' W 000°18'1717.2
2016-Dec-02 04:33N 49°43' W 000°29'1312.6
2016-Dec-02 03:33N 49°55' W 000°36'1111.1
2016-Dec-02 02:33N 50°05' W 000°43'1511.8
2016-Dec-02 01:17N 50°20' W 000°50'912.8
2016-Dec-02 00:33N 50°29' W 000°54'1414.2
2016-Dec-01 23:34N 50°42' W 001°01'7 7.3
2016-Dec-01 22:33N 50°49' W 001°06'0 0.0
2016-Dec-01 21:33N 50°49' W 001°06'5 5.0
2016-Dec-01 20:33N 50°44' W 001°03'1818.1
2016-Dec-01 19:33N 50°28' W 000°51'2020.0
2016-Dec-01 18:33N 50°09' W 000°42'2020.0
2016-Dec-01 17:33N 49°50' W 000°31'2020.2
2016-Dec-01 16:33N 49°31' W 000°20'1414.0
2016-Dec-01 15:34N 49°17' W 000°15'0 0.0
2016-Dec-01 14:33N 49°17' W 000°15'3 2.6
2016-Dec-01 13:33N 49°20' W 000°14'2019.8
2016-Dec-01 12:33N 49°39' W 000°24'1919.4
2016-Dec-01 11:33N 49°57' W 000°33'2019.9
2016-Dec-01 10:33N 50°17' W 000°42'2019.9
2016-Dec-01 09:33N 50°35' W 000°55'1615.8
2016-Dec-01 08:33N 50°48' W 001°07'1 0.8
2016-Dec-01 07:33N 50°49' W 001°06'0 0.5
2016-Dec-01 06:34N 50°49' W 001°07'1313.2
2016-Dec-01 05:33N 50°36' W 000°58'1413.7
2016-Dec-01 04:33N 50°23' W 000°55'1110.8
2016-Dec-01 03:31N 50°12' W 000°50'1212.5
2016-Dec-01 02:33N 50°02' W 000°41'1313.0
2016-Dec-01 01:33N 49°50' W 000°34'5 4.6
2016-Dec-01 00:33N 49°46' W 000°29'1212.2
2016-Nov-30 23:33N 49°35' W 000°22'1211.8
2016-Nov-30 22:33N 49°24' W 000°16'6 6.3
2016-Nov-30 21:33N 49°17' W 000°15'0 0.0
2016-Nov-30 20:33N 49°17' W 000°15'10 9.6
2016-Nov-30 19:33N 49°27' W 000°18'2019.5
2016-Nov-30 18:33N 49°45' W 000°30'1919.1
2016-Nov-30 17:33N 50°02' W 000°42'1818.1
2016-Nov-30 16:33N 50°18' W 000°55'1919.2
2016-Nov-30 15:33N 50°37' W 001°00'1212.1
2016-Nov-30 14:33N 50°49' W 001°06'0 0.0
2016-Nov-30 13:33N 50°49' W 001°06'3 3.1
2016-Nov-30 12:33N 50°46' W 001°05'1918.7
2016-Nov-30 11:33N 50°28' W 000°54'1919.2
2016-Nov-30 10:34N 50°11' W 000°43'1918.8
2016-Nov-30 09:33N 49°53' W 000°33'1918.6
2016-Nov-30 08:33N 49°36' W 000°20'1918.6
2016-Nov-30 07:33N 49°18' W 000°15'0 0.4
2016-Nov-30 06:33N 49°17' W 000°15'0 0.0
2016-Nov-30 05:33N 49°17' W 000°15'1514.9
2016-Nov-30 04:33N 49°32' W 000°22'1817.9
2016-Nov-30 03:33N 49°48' W 000°31'1817.6
2016-Nov-30 02:33N 50°05' W 000°41'1716.0
2016-Nov-30 01:31N 50°20' W 000°50'1515.1
2016-Nov-30 00:33N 50°34' W 000°56'1413.7
2016-Nov-29 23:33N 50°47' W 001°06'2 2.1
2016-Nov-29 22:33N 50°49' W 001°06'0 0.0
2016-Nov-29 21:34N 50°49' W 001°06'5 4.6
2016-Nov-29 20:33N 50°44' W 001°04'1919.0
2016-Nov-29 19:33N 50°27' W 000°50'2020.1
2016-Nov-29 18:33N 50°08' W 000°42'2019.8
2016-Nov-29 17:33N 49°49' W 000°32'2120.5
2016-Nov-29 16:33N 49°30' W 000°20'1313.4
2016-Nov-29 15:33N 49°17' W 000°15'0 0.0
2016-Nov-29 14:34N 49°17' W 000°15'2 2.2
2016-Nov-29 13:34N 49°20' W 000°15'1919.4
2016-Nov-29 12:34N 49°38' W 000°23'2019.8
2016-Nov-29 11:34N 49°57' W 000°34'1918.6
2016-Nov-29 10:33N 50°14' W 000°45'1918.5
2016-Nov-29 09:34N 50°32' W 000°54'1717.0
2016-Nov-29 08:33N 50°47' W 001°06'2 2.0
2016-Nov-29 07:33N 50°49' W 001°06'0 0.1
2016-Nov-29 06:33N 50°49' W 001°06'1312.7
2016-Nov-29 05:33N 50°37' W 000°57'1413.5
2016-Nov-29 04:33N 50°25' W 000°48'1211.6
2016-Nov-29 03:33N 50°14' W 000°41'1211.6
2016-Nov-29 02:33N 50°04' W 000°33'1211.7
2016-Nov-29 01:34N 49°54' W 000°25'1111.5
2016-Nov-29 00:34N 49°43' W 000°17'1111.3
2016-Nov-28 23:34N 49°33' W 000°11'1010.1
2016-Nov-28 22:34N 49°23' W 000°12'6 5.6
2016-Nov-28 21:34N 49°17' W 000°15'0 0.0
2016-Nov-28 20:33N 49°17' W 000°15'1010.3
2016-Nov-28 19:33N 49°28' W 000°17'1818.5
2016-Nov-28 18:33N 49°45' W 000°28'1918.9
2016-Nov-28 17:33N 50°02' W 000°39'1918.6
2016-Nov-28 16:33N 50°20' W 000°47'1818.5
2016-Nov-28 15:33N 50°38' W 000°55'1313.1
2016-Nov-28 14:33N 50°49' W 001°06'0 0.1
2016-Nov-28 13:33N 50°49' W 001°06'2 2.1
2016-Nov-28 12:33N 50°47' W 001°06'1817.9
2016-Nov-28 11:34N 50°31' W 000°52'1919.0
2016-Nov-28 10:33N 50°14' W 000°38'2120.7
2016-Nov-28 09:34N 49°55' W 000°28'2120.9
2016-Nov-28 08:34N 49°35' W 000°19'1717.3
2016-Nov-28 07:33N 49°17' W 000°15'0 0.0
2016-Nov-28 06:34N 49°17' W 000°15'0 0.0
2016-Nov-28 05:33N 49°17' W 000°15'1413.7
2016-Nov-28 04:33N 49°31' W 000°19'1515.1
2016-Nov-28 03:33N 49°45' W 000°27'1514.7
2016-Nov-28 02:33N 49°58' W 000°36'3114.7
2016-Nov-28 00:29N 50°27' W 000°52'1617.1
2016-Nov-27 23:33N 50°42' W 001°01'7 7.4
2016-Nov-27 22:33N 50°49' W 001°06'0 0.0
2016-Nov-27 21:34N 50°49' W 001°06'6 5.6
2016-Nov-27 20:34N 50°44' W 001°02'1716.6
2016-Nov-27 19:33N 50°28' W 000°51'2019.7
2016-Nov-27 18:33N 50°09' W 000°42'1919.3
2016-Nov-27 17:33N 49°51' W 000°33'1818.4
2016-Nov-27 16:33N 49°34' W 000°22'1717.0
2016-Nov-27 15:33N 49°18' W 000°15'1 0.5
2016-Nov-27 14:33N 49°17' W 000°15'2 1.5
2016-Nov-27 13:33N 49°19' W 000°15'1818.2
2016-Nov-27 12:33N 49°37' W 000°21'1818.3
2016-Nov-27 11:33N 49°54' W 000°31'1918.7
2016-Nov-27 10:33N 50°11' W 000°42'1919.3
2016-Nov-27 09:33N 50°29' W 000°53'1818.2
2016-Nov-27 08:33N 50°45' W 001°05'3 3.4
2016-Nov-27 07:33N 50°49' W 001°06'0 0.4
2016-Nov-27 06:33N 50°49' W 001°06'1413.5
2016-Nov-27 05:34N 50°36' W 000°57'1615.2
2016-Nov-27 04:32N 50°22' W 000°49'1111.1
2016-Nov-27 03:33N 50°12' W 000°43'1211.5
2016-Nov-27 02:33N 50°01' W 000°36'1211.7
2016-Nov-27 01:33N 49°50' W 000°30'1212.3
2016-Nov-27 00:33N 49°38' W 000°24'1211.9
2016-Nov-26 23:33N 49°27' W 000°18'3 2.8
2016-Nov-26 22:33N 49°24' W 000°16'7 7.1
2016-Nov-26 21:33N 49°17' W 000°15'0 0.0
2016-Nov-26 20:33N 49°17' W 000°15'1111.0
2016-Nov-26 19:33N 49°28' W 000°17'1818.2
2016-Nov-26 18:33N 49°45' W 000°26'1817.8
2016-Nov-26 17:33N 50°02' W 000°34'2219.4
2016-Nov-26 16:27N 50°23' W 000°45'1719.0
2016-Nov-26 15:33N 50°38' W 000°55'1212.3
2016-Nov-26 14:34N 50°49' W 001°06'0 0.0
2016-Nov-26 13:34N 50°49' W 001°06'3 2.9
2016-Nov-26 12:34N 50°46' W 001°05'1818.1
2016-Nov-26 11:34N 50°30' W 000°52'1918.4
2016-Nov-26 10:33N 50°13' W 000°41'2019.8
2016-Nov-26 09:33N 49°54' W 000°30'2019.5
2016-Nov-26 08:33N 49°35' W 000°22'1818.1
2016-Nov-26 07:33N 49°18' W 000°15'1 0.6
2016-Nov-26 06:34N 49°17' W 000°15'0 0.1
2016-Nov-26 05:34N 49°17' W 000°15'1313.3
2016-Nov-26 04:33N 49°30' W 000°19'1212.1
2016-Nov-26 03:33N 49°41' W 000°26'1111.4
2016-Nov-26 02:33N 49°52' W 000°32'1110.9
2016-Nov-26 01:33N 50°02' W 000°38'1815.3
2016-Nov-26 00:22N 50°19' W 000°48'1315.9
2016-Nov-25 23:33N 50°31' W 000°55'1515.2
2016-Nov-25 22:34N 50°45' W 001°05'4 3.6
2016-Nov-25 21:34N 50°49' W 001°06'0 0.0
2016-Nov-25 20:34N 50°49' W 001°06'0 0.0
2016-Nov-25 19:33N 50°49' W 001°06'2 1.8
2016-Nov-25 18:33N 50°47' W 001°06'1717.4
2016-Nov-25 17:33N 50°32' W 000°53'1818.1
2016-Nov-25 16:33N 50°15' W 000°41'1818.1
2016-Nov-25 15:33N 49°58' W 000°31'1818.3
2016-Nov-25 14:33N 49°41' W 000°23'1818.1
2016-Nov-25 13:33N 49°23' W 000°16'6 5.9
2016-Nov-25 12:33N 49°17' W 000°15'0 0.0
2016-Nov-25 11:34N 49°17' W 000°15'0 0.0
2016-Nov-25 10:33N 49°17' W 000°15'0 0.0
2016-Nov-25 09:33N 49°17' W 000°15'0 0.0
2016-Nov-25 08:33N 49°17' W 000°15'0 0.0
2016-Nov-25 07:33N 49°17' W 000°15'0 0.0
2016-Nov-25 06:33N 49°17' W 000°15'1111.1
2016-Nov-25 05:33N 49°28' W 000°15'1413.8
2016-Nov-25 04:33N 49°42' W 000°19'1111.1
2016-Nov-25 03:33N 49°53' W 000°22'1212.1
2016-Nov-25 02:33N 50°05' W 000°27'2015.7
2016-Nov-25 01:16N 50°24' W 000°37'1115.4
2016-Nov-25 00:33N 50°33' W 000°46'1515.5
2016-Nov-24 23:33N 50°44' W 001°03'5 5.0
2016-Nov-24 22:33N 50°49' W 001°06'0 0.0
2016-Nov-24 21:33N 50°49' W 001°06'9 8.7
2016-Nov-24 20:34N 50°41' W 001°00'2119.8
2016-Nov-24 19:29N 50°20' W 000°49'1819.8
2016-Nov-24 18:33N 50°04' W 000°39'1918.6
2016-Nov-24 17:33N 49°46' W 000°28'1818.5
2016-Nov-24 16:34N 49°29' W 000°18'1211.8
2016-Nov-24 15:33N 49°17' W 000°15'0 0.0
2016-Nov-24 14:33N 49°17' W 000°15'1211.5
2016-Nov-24 13:33N 49°29' W 000°16'2019.7
2016-Nov-24 12:33N 49°47' W 000°28'2020.1
2016-Nov-24 11:33N 50°06' W 000°40'2020.4
2016-Nov-24 10:33N 50°25' W 000°50'2020.0
2016-Nov-24 09:33N 50°43' W 001°03'6 5.8
2016-Nov-24 08:33N 50°49' W 001°06'0 0.0
2016-Nov-24 07:33N 50°49' W 001°06'0 0.1
2016-Nov-24 06:34N 50°49' W 001°06'1212.1
2016-Nov-24 05:34N 50°38' W 000°58'1413.6
2016-Nov-24 04:33N 50°25' W 000°50'1413.8
2016-Nov-24 03:31N 50°11' W 000°43'1313.2
2016-Nov-24 02:33N 49°59' W 000°38'  
Track history (hours):
 
Tides and Currents Weather Stations Pressure Air Temp Water Temp Dewpoint Dewpoint Depression Visibility Wind Speed Wind Dir Waves Ship Positions

Mont Saint Michel

Last reported at 2016-Dec-04 01:33 UTC. Time now 2016-Dec-04 01:57 UTC.
Position N 49°56' W 000°36'.

Length 173 m; beam 29 m.

Type: Ship. MMSI: 227023100.

Date/timePositionNaut miles runAvg speedWind from/ knotsBaromVisibWave heightAir tempDewpointWater temp
2016-Dec-04 01:33N 49°56' W 000°36'1111.5
2016-Dec-04 00:33N 49°45' W 000°30'1211.6
2016-Dec-03 23:33N 49°34' W 000°24'1111.4
2016-Dec-03 22:33N 49°24' W 000°16'6 6.4
2016-Dec-03 21:33N 49°17' W 000°15'0 0.0
2016-Dec-03 20:34N 49°17' W 000°15'1312.7
2016-Dec-03 19:34N 49°30' W 000°20'1818.2
2016-Dec-03 18:34N 49°47' W 000°30'1818.1
2016-Dec-03 17:33N 50°04' W 000°39'2118.0
2016-Dec-03 16:23N 50°23' W 000°51'1518.0
2016-Dec-03 15:34N 50°38' W 000°58'1212.0
2016-Dec-03 14:33N 50°49' W 001°06'0 0.0
2016-Dec-03 13:33N 50°49' W 001°06'4 4.4
2016-Dec-03 12:34N 50°44' W 001°04'1919.2
2016-Dec-03 11:33N 50°27' W 000°51'1818.5
2016-Dec-03 10:33N 50°10' W 000°42'1818.0
2016-Dec-03 09:33N 49°52' W 000°34'1818.2
2016-Dec-03 08:33N 49°35' W 000°24'1818.4
2016-Dec-03 07:33N 49°18' W 000°15'1 0.5
2016-Dec-03 06:33N 49°17' W 000°15'0 0.1
2016-Dec-03 05:33N 49°17' W 000°15'1312.6
2016-Dec-03 04:34N 49°29' W 000°20'1515.3
2016-Dec-03 03:34N 49°43' W 000°29'1211.7
2016-Dec-03 02:33N 49°55' W 000°35'1212.2
2016-Dec-03 01:33N 50°07' W 000°38'1512.7
2016-Dec-03 00:23N 50°21' W 000°45'1112.9
2016-Dec-02 23:34N 50°30' W 000°52'1413.9
2016-Dec-02 22:33N 50°43' W 001°02'6 6.3
2016-Dec-02 21:33N 50°49' W 001°06'0 0.0
2016-Dec-02 20:33N 50°49' W 001°06'0 0.0
2016-Dec-02 19:33N 50°49' W 001°06'4 4.3
2016-Dec-02 18:34N 50°44' W 001°05'1716.8
2016-Dec-02 17:33N 50°29' W 000°56'1716.6
2016-Dec-02 16:33N 50°13' W 000°48'1717.3
2016-Dec-02 15:33N 49°57' W 000°38'1717.2
2016-Dec-02 14:33N 49°41' W 000°28'1717.3
2016-Dec-02 13:33N 49°25' W 000°17'8 7.7
2016-Dec-02 12:33N 49°17' W 000°15'0 0.0
2016-Dec-02 11:33N 49°17' W 000°15'0 0.0
2016-Dec-02 10:33N 49°17' W 000°15'0 0.1
2016-Dec-02 09:33N 49°17' W 000°15'0 0.0
2016-Dec-02 08:33N 49°17' W 000°15'0 0.1
2016-Dec-02 07:33N 49°17' W 000°15'0 0.0
2016-Dec-02 06:33N 49°17' W 000°15'1110.5
2016-Dec-02 05:33N 49°28' W 000°18'1717.2
2016-Dec-02 04:33N 49°43' W 000°29'1312.6
2016-Dec-02 03:33N 49°55' W 000°36'1111.1
2016-Dec-02 02:33N 50°05' W 000°43'1511.8
2016-Dec-02 01:17N 50°20' W 000°50'912.8
2016-Dec-02 00:33N 50°29' W 000°54'1414.2
2016-Dec-01 23:34N 50°42' W 001°01'7 7.3
2016-Dec-01 22:33N 50°49' W 001°06'0 0.0
2016-Dec-01 21:33N 50°49' W 001°06'5 5.0
2016-Dec-01 20:33N 50°44' W 001°03'1818.1
2016-Dec-01 19:33N 50°28' W 000°51'2020.0
2016-Dec-01 18:33N 50°09' W 000°42'2020.0
2016-Dec-01 17:33N 49°50' W 000°31'2020.2
2016-Dec-01 16:33N 49°31' W 000°20'1414.0
2016-Dec-01 15:34N 49°17' W 000°15'0 0.0
2016-Dec-01 14:33N 49°17' W 000°15'3 2.6
2016-Dec-01 13:33N 49°20' W 000°14'2019.8
2016-Dec-01 12:33N 49°39' W 000°24'1919.4
2016-Dec-01 11:33N 49°57' W 000°33'2019.9
2016-Dec-01 10:33N 50°17' W 000°42'2019.9
2016-Dec-01 09:33N 50°35' W 000°55'1615.8
2016-Dec-01 08:33N 50°48' W 001°07'1 0.8
2016-Dec-01 07:33N 50°49' W 001°06'0 0.5
2016-Dec-01 06:34N 50°49' W 001°07'1313.2
2016-Dec-01 05:33N 50°36' W 000°58'1413.7
2016-Dec-01 04:33N 50°23' W 000°55'1110.8
2016-Dec-01 03:31N 50°12' W 000°50'1212.5
2016-Dec-01 02:33N 50°02' W 000°41'1313.0
2016-Dec-01 01:33N 49°50' W 000°34'5 4.6
2016-Dec-01 00:33N 49°46' W 000°29'1212.2
2016-Nov-30 23:33N 49°35' W 000°22'1211.8
2016-Nov-30 22:33N 49°24' W 000°16'6 6.3
2016-Nov-30 21:33N 49°17' W 000°15'0 0.0
2016-Nov-30 20:33N 49°17' W 000°15'10 9.6
2016-Nov-30 19:33N 49°27' W 000°18'2019.5
2016-Nov-30 18:33N 49°45' W 000°30'1919.1
2016-Nov-30 17:33N 50°02' W 000°42'1818.1
2016-Nov-30 16:33N 50°18' W 000°55'1919.2
2016-Nov-30 15:33N 50°37' W 001°00'1212.1
2016-Nov-30 14:33N 50°49' W 001°06'0 0.0
2016-Nov-30 13:33N 50°49' W 001°06'3 3.1
2016-Nov-30 12:33N 50°46' W 001°05'1918.7
2016-Nov-30 11:33N 50°28' W 000°54'1919.2
2016-Nov-30 10:34N 50°11' W 000°43'1918.8
2016-Nov-30 09:33N 49°53' W 000°33'1918.6
2016-Nov-30 08:33N 49°36' W 000°20'1918.6
2016-Nov-30 07:33N 49°18' W 000°15'0 0.4
2016-Nov-30 06:33N 49°17' W 000°15'0 0.0
2016-Nov-30 05:33N 49°17' W 000°15'1514.9
2016-Nov-30 04:33N 49°32' W 000°22'1817.9
2016-Nov-30 03:33N 49°48' W 000°31'1817.6
2016-Nov-30 02:33N 50°05' W 000°41'1716.0
2016-Nov-30 01:31N 50°20' W 000°50'1515.1
2016-Nov-30 00:33N 50°34' W 000°56'1413.7
2016-Nov-29 23:33N 50°47' W 001°06'2 2.1
2016-Nov-29 22:33N 50°49' W 001°06'0 0.0
2016-Nov-29 21:34N 50°49' W 001°06'5 4.6
2016-Nov-29 20:33N 50°44' W 001°04'1919.0
2016-Nov-29 19:33N 50°27' W 000°50'2020.1
2016-Nov-29 18:33N 50°08' W 000°42'2019.8
2016-Nov-29 17:33N 49°49' W 000°32'2120.5
2016-Nov-29 16:33N 49°30' W 000°20'1313.4
2016-Nov-29 15:33N 49°17' W 000°15'0 0.0
2016-Nov-29 14:34N 49°17' W 000°15'2 2.2
2016-Nov-29 13:34N 49°20' W 000°15'1919.4
2016-Nov-29 12:34N 49°38' W 000°23'2019.8
2016-Nov-29 11:34N 49°57' W 000°34'1918.6
2016-Nov-29 10:33N 50°14' W 000°45'1918.5
2016-Nov-29 09:34N 50°32' W 000°54'1717.0
2016-Nov-29 08:33N 50°47' W 001°06'2 2.0
2016-Nov-29 07:33N 50°49' W 001°06'0 0.1
2016-Nov-29 06:33N 50°49' W 001°06'1312.7
2016-Nov-29 05:33N 50°37' W 000°57'1413.5
2016-Nov-29 04:33N 50°25' W 000°48'1211.6
2016-Nov-29 03:33N 50°14' W 000°41'1211.6
2016-Nov-29 02:33N 50°04' W 000°33'1211.7
2016-Nov-29 01:34N 49°54' W 000°25'1111.5
2016-Nov-29 00:34N 49°43' W 000°17'1111.3
2016-Nov-28 23:34N 49°33' W 000°11'1010.1
2016-Nov-28 22:34N 49°23' W 000°12'6 5.6
2016-Nov-28 21:34N 49°17' W 000°15'0 0.0
2016-Nov-28 20:33N 49°17' W 000°15'1010.3
2016-Nov-28 19:33N 49°28' W 000°17'1818.5
2016-Nov-28 18:33N 49°45' W 000°28'1918.9
2016-Nov-28 17:33N 50°02' W 000°39'1918.6
2016-Nov-28 16:33N 50°20' W 000°47'1818.5
2016-Nov-28 15:33N 50°38' W 000°55'1313.1
2016-Nov-28 14:33N 50°49' W 001°06'0 0.1
2016-Nov-28 13:33N 50°49' W 001°06'2 2.1
2016-Nov-28 12:33N 50°47' W 001°06'1817.9
2016-Nov-28 11:34N 50°31' W 000°52'1919.0
2016-Nov-28 10:33N 50°14' W 000°38'2120.7
2016-Nov-28 09:34N 49°55' W 000°28'2120.9
2016-Nov-28 08:34N 49°35' W 000°19'1717.3
2016-Nov-28 07:33N 49°17' W 000°15'0 0.0
2016-Nov-28 06:34N 49°17' W 000°15'0 0.0
2016-Nov-28 05:33N 49°17' W 000°15'1413.7
2016-Nov-28 04:33N 49°31' W 000°19'1515.1
2016-Nov-28 03:33N 49°45' W 000°27'1514.7
2016-Nov-28 02:33N 49°58' W 000°36'3114.7
2016-Nov-28 00:29N 50°27' W 000°52'1617.1
2016-Nov-27 23:33N 50°42' W 001°01'7 7.4
2016-Nov-27 22:33N 50°49' W 001°06'0 0.0
2016-Nov-27 21:34N 50°49' W 001°06'6 5.6
2016-Nov-27 20:34N 50°44' W 001°02'1716.6
2016-Nov-27 19:33N 50°28' W 000°51'2019.7
2016-Nov-27 18:33N 50°09' W 000°42'1919.3
2016-Nov-27 17:33N 49°51' W 000°33'1818.4
2016-Nov-27 16:33N 49°34' W 000°22'1717.0
2016-Nov-27 15:33N 49°18' W 000°15'1 0.5
2016-Nov-27 14:33N 49°17' W 000°15'2 1.5
2016-Nov-27 13:33N 49°19' W 000°15'1818.2
2016-Nov-27 12:33N 49°37' W 000°21'1818.3
2016-Nov-27 11:33N 49°54' W 000°31'1918.7
2016-Nov-27 10:33N 50°11' W 000°42'1919.3
2016-Nov-27 09:33N 50°29' W 000°53'1818.2
2016-Nov-27 08:33N 50°45' W 001°05'3 3.4
2016-Nov-27 07:33N 50°49' W 001°06'0 0.4
2016-Nov-27 06:33N 50°49' W 001°06'1413.5
2016-Nov-27 05:34N 50°36' W 000°57'1615.2
2016-Nov-27 04:32N 50°22' W 000°49'1111.1
2016-Nov-27 03:33N 50°12' W 000°43'1211.5
2016-Nov-27 02:33N 50°01' W 000°36'1211.7
2016-Nov-27 01:33N 49°50' W 000°30'1212.3
2016-Nov-27 00:33N 49°38' W 000°24'1211.9
2016-Nov-26 23:33N 49°27' W 000°18'3 2.8
2016-Nov-26 22:33N 49°24' W 000°16'7 7.1
2016-Nov-26 21:33N 49°17' W 000°15'0 0.0
2016-Nov-26 20:33N 49°17' W 000°15'1111.0
2016-Nov-26 19:33N 49°28' W 000°17'1818.2
2016-Nov-26 18:33N 49°45' W 000°26'1817.8
2016-Nov-26 17:33N 50°02' W 000°34'2219.4
2016-Nov-26 16:27N 50°23' W 000°45'1719.0
2016-Nov-26 15:33N 50°38' W 000°55'1212.3
2016-Nov-26 14:34N 50°49' W 001°06'0 0.0
2016-Nov-26 13:34N 50°49' W 001°06'3 2.9
2016-Nov-26 12:34N 50°46' W 001°05'1818.1
2016-Nov-26 11:34N 50°30' W 000°52'1918.4
2016-Nov-26 10:33N 50°13' W 000°41'2019.8
2016-Nov-26 09:33N 49°54' W 000°30'2019.5
2016-Nov-26 08:33N 49°35' W 000°22'1818.1
2016-Nov-26 07:33N 49°18' W 000°15'1 0.6
2016-Nov-26 06:34N 49°17' W 000°15'0 0.1
2016-Nov-26 05:34N 49°17' W 000°15'1313.3
2016-Nov-26 04:33N 49°30' W 000°19'1212.1
2016-Nov-26 03:33N 49°41' W 000°26'1111.4
2016-Nov-26 02:33N 49°52' W 000°32'1110.9
2016-Nov-26 01:33N 50°02' W 000°38'1815.3
2016-Nov-26 00:22N 50°19' W 000°48'1315.9
2016-Nov-25 23:33N 50°31' W 000°55'1515.2
2016-Nov-25 22:34N 50°45' W 001°05'4 3.6
2016-Nov-25 21:34N 50°49' W 001°06'0 0.0
2016-Nov-25 20:34N 50°49' W 001°06'0 0.0
2016-Nov-25 19:33N 50°49' W 001°06'2 1.8
2016-Nov-25 18:33N 50°47' W 001°06'1717.4
2016-Nov-25 17:33N 50°32' W 000°53'1818.1
2016-Nov-25 16:33N 50°15' W 000°41'1818.1
2016-Nov-25 15:33N 49°58' W 000°31'1818.3
2016-Nov-25 14:33N 49°41' W 000°23'1818.1
2016-Nov-25 13:33N 49°23' W 000°16'6 5.9
2016-Nov-25 12:33N 49°17' W 000°15'0 0.0
2016-Nov-25 11:34N 49°17' W 000°15'0 0.0
2016-Nov-25 10:33N 49°17' W 000°15'0 0.0
2016-Nov-25 09:33N 49°17' W 000°15'0 0.0
2016-Nov-25 08:33N 49°17' W 000°15'0 0.0
2016-Nov-25 07:33N 49°17' W 000°15'0 0.0
2016-Nov-25 06:33N 49°17' W 000°15'1111.1
2016-Nov-25 05:33N 49°28' W 000°15'1413.8
2016-Nov-25 04:33N 49°42' W 000°19'1111.1
2016-Nov-25 03:33N 49°53' W 000°22'1212.1
2016-Nov-25 02:33N 50°05' W 000°27'2015.7
2016-Nov-25 01:16N 50°24' W 000°37'1115.4
2016-Nov-25 00:33N 50°33' W 000°46'1515.5
2016-Nov-24 23:33N 50°44' W 001°03'5 5.0
2016-Nov-24 22:33N 50°49' W 001°06'0 0.0
2016-Nov-24 21:33N 50°49' W 001°06'9 8.7
2016-Nov-24 20:34N 50°41' W 001°00'2119.8
2016-Nov-24 19:29N 50°20' W 000°49'1819.8
2016-Nov-24 18:33N 50°04' W 000°39'1918.6
2016-Nov-24 17:33N 49°46' W 000°28'1818.5
2016-Nov-24 16:34N 49°29' W 000°18'1211.8
2016-Nov-24 15:33N 49°17' W 000°15'0 0.0
2016-Nov-24 14:33N 49°17' W 000°15'1211.5
2016-Nov-24 13:33N 49°29' W 000°16'2019.7
2016-Nov-24 12:33N 49°47' W 000°28'2020.1
2016-Nov-24 11:33N 50°06' W 000°40'2020.4
2016-Nov-24 10:33N 50°25' W 000°50'2020.0
2016-Nov-24 09:33N 50°43' W 001°03'6 5.8
2016-Nov-24 08:33N 50°49' W 001°06'0 0.0
2016-Nov-24 07:33N 50°49' W 001°06'0 0.1
2016-Nov-24 06:34N 50°49' W 001°06'1212.1
2016-Nov-24 05:34N 50°38' W 000°58'1413.6
2016-Nov-24 04:33N 50°25' W 000°50'1413.8
2016-Nov-24 03:31N 50°11' W 000°43'1313.2
2016-Nov-24 02:33N 49°59' W 000°38'  

Dump ship's entire track history